Time;durP1;ratioP1;P1;durP2;ratioP2;P2;SDS_P1;SDS_P2;PMS_P1;PMS_P2;Temp;Humidity;BMP_temperature;BMP_pressure;BME280_temperature;BME280_humidity;BME280_pressure;Samples;Min_cycle;Max_cycle;Signal;HPM_P1;HPM_P2
2022/05/05 00:01:34;;;;;;;12.50;11.50;;;12.70;99.90;;;;;;4910334;29;20497;-79
2022/05/05 00:04:02;;;;;;;13.10;11.90;;;12.70;99.90;;;;;;4905282;29;20468;-79
2022/05/05 00:06:29;;;;;;;13.43;12.33;;;12.70;99.90;;;;;;4920972;29;21018;-79
2022/05/05 00:08:56;;;;;;;14.87;13.50;;;12.80;99.90;;;;;;4913376;29;20482;-79
2022/05/05 00:14:27;;;;;;;11.17;10.30;;;12.70;99.90;;;;;;4911417;29;20453;-79
2022/05/05 00:16:56;;;;;;;12.03;10.70;;;12.70;99.90;;;;;;4911027;29;20514;-79
2022/05/05 00:19:22;;;;;;;11.30;10.30;;;12.70;99.90;;;;;;4901443;29;20822;-79
2022/05/05 00:21:49;;;;;;;12.70;11.73;;;12.70;99.90;;;;;;4910209;29;20468;-79
2022/05/05 00:24:16;;;;;;;12.07;11.10;;;12.70;99.90;;;;;;4908453;29;20454;-79
2022/05/05 00:26:43;;;;;;;12.17;11.17;;;12.80;99.90;;;;;;4908622;29;20573;-79
2022/05/05 00:29:12;;;;;;;11.00;10.13;;;12.80;99.90;;;;;;4920859;29;20458;-79
2022/05/05 00:31:38;;;;;;;10.80;9.97;;;12.80;99.90;;;;;;4913913;29;20459;-79
2022/05/05 00:34:05;;;;;;;12.27;11.07;;;12.90;99.90;;;;;;4902247;29;20467;-79
2022/05/05 00:36:32;;;;;;;12.13;10.93;;;12.80;99.90;;;;;;4913412;29;20462;-79
2022/05/05 00:38:58;;;;;;;11.40;10.50;;;12.80;99.90;;;;;;4920710;29;20475;-79
2022/05/05 00:41:25;;;;;;;13.13;11.97;;;12.80;99.90;;;;;;4909128;29;20462;-79
2022/05/05 00:43:52;;;;;;;12.70;11.60;;;12.80;99.90;;;;;;4908119;29;20454;-79
2022/05/05 00:46:20;;;;;;;12.97;11.87;;;12.80;99.90;;;;;;4919519;29;20493;-79
2022/05/05 00:48:47;;;;;;;10.63;9.77;;;12.80;99.90;;;;;;4905133;29;20494;-79
2022/05/05 00:51:14;;;;;;;10.90;10.10;;;12.80;99.90;;;;;;4901521;29;20466;-79
2022/05/05 00:53:41;;;;;;;11.20;10.27;;;12.70;99.90;;;;;;4915844;29;20470;-79
2022/05/05 00:56:13;;;;;;;12.13;11.10;;;12.70;99.90;;;;;;4920789;29;20453;-79
2022/05/05 00:58:40;;;;;;;11.60;10.50;;;12.60;99.90;;;;;;4906650;29;20517;-79
2022/05/05 01:01:07;;;;;;;14.37;13.17;;;12.50;99.90;;;;;;4919796;29;20948;-79
2022/05/05 01:03:37;;;;;;;12.27;11.17;;;12.50;99.90;;;;;;4908627;29;20462;-79
2022/05/05 01:06:06;;;;;;;11.90;10.90;;;12.40;99.90;;;;;;4920490;29;20571;-79
2022/05/05 01:08:34;;;;;;;17.37;12.60;;;12.40;99.90;;;;;;4908337;29;20479;-79
2022/05/05 01:11:00;;;;;;;11.47;10.37;;;12.30;99.90;;;;;;4901509;29;20470;-79
2022/05/05 01:13:27;;;;;;;11.43;10.53;;;12.30;99.90;;;;;;4920321;29;20461;-79
2022/05/05 01:15:55;;;;;;;11.03;9.93;;;12.30;99.90;;;;;;4904344;29;20831;-79
2022/05/05 01:18:22;;;;;;;10.20;9.37;;;12.20;99.90;;;;;;4901350;29;20483;-79
2022/05/05 01:20:52;;;;;;;13.63;11.23;;;12.10;99.90;;;;;;4915312;29;20465;-79
2022/05/05 01:23:21;;;;;;;13.40;12.10;;;11.80;99.90;;;;;;4915426;29;20462;-79
2022/05/05 01:28:36;;;;;;;12.97;11.60;;;11.60;99.90;;;;;;4907004;29;20481;-79
2022/05/05 01:31:03;;;;;;;12.73;11.63;;;11.50;99.90;;;;;;4923490;29;20453;-79
2022/05/05 01:33:31;;;;;;;12.73;11.37;;;11.50;99.90;;;;;;4919299;29;20469;-79
2022/05/05 01:35:59;;;;;;;12.97;11.77;;;11.50;99.90;;;;;;4922350;29;20457;-79
2022/05/05 01:38:35;;;;;;;12.33;11.33;;;11.50;99.90;;;;;;4909650;29;20485;-79
2022/05/05 01:41:02;;;;;;;12.90;11.73;;;11.60;99.90;;;;;;4905089;29;20538;-79
2022/05/05 01:43:29;;;;;;;11.20;10.20;;;11.50;99.90;;;;;;4918250;29;20457;-79
2022/05/05 01:45:56;;;;;;;12.93;11.73;;;11.50;99.90;;;;;;4906958;29;20486;-79
2022/05/05 01:48:23;;;;;;;14.70;13.20;;;11.30;99.90;;;;;;4928082;23;21140;-80
2022/05/05 01:50:49;;;;;;;12.90;11.83;;;11.30;99.90;;;;;;4904206;29;20457;-80
2022/05/05 01:53:16;;;;;;;14.47;13.17;;;11.30;99.90;;;;;;4914718;29;20457;-79
2022/05/05 01:55:44;;;;;;;12.63;11.43;;;11.40;99.90;;;;;;4923091;29;20448;-79
2022/05/05 01:58:11;;;;;;;13.07;11.97;;;11.50;99.90;;;;;;4906686;29;20492;-80
2022/05/05 02:00:38;;;;;;;12.00;11.07;;;11.70;99.90;;;;;;4904209;29;20465;-80
2022/05/05 02:03:12;;;;;;;13.60;12.40;;;11.70;99.90;;;;;;4919013;29;20491;-80
2022/05/05 02:05:39;;;;;;;12.43;11.43;;;11.80;99.90;;;;;;4904633;29;20502;-80
2022/05/05 02:08:06;;;;;;;11.77;10.63;;;11.80;99.90;;;;;;4904501;29;20904;-80
2022/05/05 02:10:33;;;;;;;13.90;12.50;;;11.80;99.90;;;;;;4904133;29;20450;-80
2022/05/05 02:13:01;;;;;;;12.47;11.37;;;11.90;99.90;;;;;;4917467;29;20462;-80
2022/05/05 02:15:28;;;;;;;11.87;10.77;;;11.90;99.90;;;;;;4924571;29;20840;-80
2022/05/05 02:17:55;;;;;;;12.47;11.27;;;11.90;99.90;;;;;;4923903;29;20474;-80
2022/05/05 02:20:22;;;;;;;11.97;10.83;;;11.90;99.90;;;;;;4922787;29;20465;-80
2022/05/05 02:22:49;;;;;;;11.67;10.67;;;12.00;99.90;;;;;;4923184;29;20485;-80
2022/05/05 02:25:15;;;;;;;12.07;10.97;;;12.00;99.90;;;;;;4922914;29;20994;-79
2022/05/05 02:27:47;;;;;;;12.47;11.37;;;12.00;99.90;;;;;;4930948;29;21007;-80
2022/05/05 02:30:16;;;;;;;10.83;10.07;;;12.00;99.90;;;;;;4922201;29;20469;-78
2022/05/05 02:32:43;;;;;;;11.73;10.73;;;12.00;99.90;;;;;;4921087;29;20469;-79
2022/05/05 02:35:10;;;;;;;11.60;10.50;;;12.00;99.90;;;;;;4920872;29;20464;-79
2022/05/05 02:40:21;;;;;;;12.20;11.10;;;12.10;99.90;;;;;;4919772;29;20472;-79
2022/05/05 02:42:48;;;;;;;13.50;12.43;;;12.10;99.90;;;;;;4919260;29;20464;-79
2022/05/05 02:45:17;;;;;;;12.60;11.50;;;12.10;99.90;;;;;;4919889;29;20469;-79
2022/05/05 02:47:45;;;;;;;12.63;11.57;;;12.10;99.90;;;;;;4901092;29;20486;-79
2022/05/05 02:50:12;;;;;;;13.37;12.07;;;12.10;99.90;;;;;;4901117;29;20458;-79
2022/05/05 02:52:38;;;;;;;12.90;11.73;;;12.10;99.90;;;;;;4919677;29;20464;-79
2022/05/05 02:55:06;;;;;;;11.23;10.20;;;12.00;99.90;;;;;;4919779;29;20457;-79
2022/05/05 02:57:32;;;;;;;12.07;10.97;;;12.00;99.90;;;;;;4919880;29;20853;-79
2022/05/05 02:59:59;;;;;;;12.37;11.33;;;12.00;99.90;;;;;;4920121;29;20453;-79
2022/05/05 03:02:29;;;;;;;12.17;11.17;;;11.90;99.90;;;;;;4919559;29;20461;-79
2022/05/05 03:04:55;;;;;;;12.13;11.03;;;11.90;99.90;;;;;;4919812;29;20461;-79
2022/05/05 03:07:23;;;;;;;11.47;10.47;;;11.90;99.90;;;;;;4919440;29;20497;-79
2022/05/05 03:09:49;;;;;;;11.57;10.67;;;11.80;99.90;;;;;;4919965;29;20465;-79
2022/05/05 03:12:16;;;;;;;12.00;10.90;;;11.80;99.90;;;;;;4919112;29;20465;-79
2022/05/05 03:14:46;;;;;;;11.73;10.83;;;11.80;99.90;;;;;;4919518;29;20462;-79
2022/05/05 03:17:13;;;;;;;11.67;10.67;;;11.80;99.90;;;;;;4919087;29;20454;-79
2022/05/05 03:19:41;;;;;;;12.20;11.00;;;11.80;99.90;;;;;;4919111;29;20466;-79
2022/05/05 03:22:08;;;;;;;11.03;10.10;;;11.80;99.90;;;;;;4918959;29;20825;-79
2022/05/05 03:24:35;;;;;;;12.73;11.53;;;11.70;99.90;;;;;;4919387;29;20457;-78
2022/05/05 03:27:02;;;;;;;13.10;11.90;;;11.70;99.90;;;;;;4919254;29;20492;-78
2022/05/05 03:29:29;;;;;;;13.47;12.43;;;11.70;99.90;;;;;;4919946;29;20458;-79
2022/05/05 03:31:55;;;;;;;12.10;11.10;;;11.70;99.90;;;;;;4919185;29;20453;-79
2022/05/05 03:34:22;;;;;;;13.90;12.70;;;11.70;99.90;;;;;;4919951;29;20994;-78
2022/05/05 03:36:50;;;;;;;12.80;11.27;;;11.70;99.90;;;;;;4919257;29;20454;-78
2022/05/05 03:39:17;;;;;;;13.83;12.60;;;11.70;99.90;;;;;;4901415;29;20485;-78
2022/05/05 03:41:44;;;;;;;12.60;11.60;;;11.70;99.90;;;;;;4916854;29;20464;-78
2022/05/05 03:44:10;;;;;;;12.27;11.20;;;11.70;99.90;;;;;;4917190;29;20469;-78
2022/05/05 03:46:37;;;;;;;11.70;10.80;;;11.80;99.90;;;;;;4916895;29;20486;-78
2022/05/05 03:49:04;;;;;;;12.30;11.17;;;11.70;99.90;;;;;;4916310;29;20497;-77
2022/05/05 03:51:30;;;;;;;12.07;11.07;;;11.80;99.90;;;;;;4916364;29;20465;-78
2022/05/05 03:53:58;;;;;;;13.30;12.20;;;11.80;99.90;;;;;;4916631;29;20534;-78
2022/05/05 03:56:25;;;;;;;12.27;11.27;;;11.90;99.90;;;;;;4917011;29;20447;-78
2022/05/05 03:58:52;;;;;;;12.70;11.50;;;11.90;99.90;;;;;;4916882;29;20482;-78
2022/05/05 04:01:19;;;;;;;13.80;12.63;;;11.90;99.90;;;;;;4916212;29;20457;-79
2022/05/05 04:03:45;;;;;;;14.20;12.70;;;11.80;99.90;;;;;;4920687;29;20462;-81
2022/05/05 04:06:13;;;;;;;12.93;11.63;;;11.60;99.90;;;;;;4922209;29;20496;-81
2022/05/05 04:08:40;;;;;;;12.57;11.40;;;11.70;99.90;;;;;;4922667;29;20576;-80
2022/05/05 04:11:08;;;;;;;13.20;12.10;;;11.80;99.90;;;;;;4903084;29;20465;-80
2022/05/05 04:13:36;;;;;;;12.43;11.43;;;11.90;99.90;;;;;;4909874;29;20834;-81
2022/05/05 04:16:03;;;;;;;13.37;12.07;;;11.90;99.90;;;;;;4922168;29;20482;-81
2022/05/05 04:18:30;;;;;;;12.17;11.10;;;12.00;99.90;;;;;;4921695;29;20477;-81
2022/05/05 04:20:56;;;;;;;14.10;12.77;;;12.00;99.90;;;;;;4921322;29;20461;-81
2022/05/05 04:23:23;;;;;;;13.50;12.30;;;12.00;99.90;;;;;;4921270;29;20461;-80
2022/05/05 04:25:50;;;;;;;14.03;12.77;;;12.00;99.90;;;;;;4921876;29;20489;-81
2022/05/05 04:28:19;;;;;;;13.20;12.10;;;12.00;99.90;;;;;;4921494;29;20477;-80
2022/05/05 04:30:46;;;;;;;12.10;10.90;;;12.10;99.90;;;;;;4921316;29;20459;-81
2022/05/05 04:33:13;;;;;;;12.17;11.03;;;12.10;99.90;;;;;;4921106;29;20504;-81
2022/05/05 04:35:40;;;;;;;11.93;11.03;;;12.20;99.90;;;;;;4921638;29;20461;-81
2022/05/05 04:38:07;;;;;;;11.80;10.80;;;12.20;99.90;;;;;;4920724;29;20473;-81
2022/05/05 04:40:34;;;;;;;12.03;11.03;;;12.10;99.90;;;;;;4921514;29;20469;-80
2022/05/05 04:43:00;;;;;;;12.00;10.90;;;12.20;99.90;;;;;;4921671;29;20469;-81
2022/05/05 04:45:29;;;;;;;13.60;11.93;;;12.10;99.90;;;;;;4921782;29;20985;-81
2022/05/05 04:47:56;;;;;;;13.27;12.07;;;12.00;99.90;;;;;;4921009;29;20500;-81
2022/05/05 04:50:23;;;;;;;12.30;11.30;;;12.00;99.90;;;;;;4922247;29;20461;-81
2022/05/05 04:52:50;;;;;;;13.07;11.83;;;12.10;99.90;;;;;;4923000;29;20466;-81
2022/05/05 04:55:16;;;;;;;12.10;11.10;;;12.10;99.90;;;;;;4922186;29;20473;-81
2022/05/05 04:57:43;;;;;;;13.07;12.07;;;12.00;99.90;;;;;;4920856;29;20493;-81
2022/05/05 05:00:11;;;;;;;13.70;12.60;;;12.10;99.90;;;;;;4921141;29;20837;-80
2022/05/05 05:02:39;;;;;;;13.23;12.03;;;12.20;99.90;;;;;;4920721;29;20458;-81
2022/05/05 05:05:06;;;;;;;13.43;12.23;;;12.30;99.90;;;;;;4921080;29;21126;-81
2022/05/05 05:07:33;;;;;;;12.87;11.57;;;12.40;99.90;;;;;;4920664;29;20501;-81
2022/05/05 05:10:00;;;;;;;13.73;12.47;;;12.50;99.90;;;;;;4920922;29;20502;-81
2022/05/05 05:12:27;;;;;;;14.53;13.20;;;12.60;99.90;;;;;;4920651;29;20462;-80
2022/05/05 05:14:53;;;;;;;12.27;11.13;;;12.70;99.90;;;;;;4921389;29;20457;-81
2022/05/05 05:17:20;;;;;;;11.77;10.67;;;12.70;99.90;;;;;;4930284;29;20458;-80
2022/05/05 05:19:48;;;;;;;13.10;11.90;;;12.80;99.90;;;;;;4931210;29;20484;-80
2022/05/05 05:22:15;;;;;;;12.60;11.60;;;12.90;99.90;;;;;;4919822;29;20473;-78
2022/05/05 05:24:42;;;;;;;12.47;11.37;;;12.90;99.90;;;;;;4915693;29;20457;-78
2022/05/05 05:27:09;;;;;;;14.73;13.57;;;12.90;99.90;;;;;;4917824;29;20482;-79
2022/05/05 05:29:36;;;;;;;13.10;11.90;;;13.00;99.90;;;;;;4921065;29;20466;-80
2022/05/05 05:32:03;;;;;;;12.30;11.23;;;13.00;99.90;;;;;;4919992;29;20473;-80
2022/05/05 05:34:30;;;;;;;12.30;11.20;;;13.10;99.90;;;;;;4920444;29;20462;-80
2022/05/05 05:36:58;;;;;;;12.53;11.23;;;13.10;99.90;;;;;;4921588;29;20461;-80
2022/05/05 05:39:25;;;;;;;11.90;10.80;;;13.00;99.90;;;;;;4920507;29;20488;-80
2022/05/05 05:41:51;;;;;;;13.37;12.17;;;13.00;99.90;;;;;;4919733;29;20454;-80
2022/05/05 05:44:18;;;;;;;13.57;12.10;;;13.00;99.90;;;;;;4920458;29;20465;-80
2022/05/05 05:46:45;;;;;;;11.90;11.00;;;12.90;99.90;;;;;;4920286;29;20494;-80
2022/05/05 05:49:12;;;;;;;13.00;11.77;;;12.70;99.90;;;;;;4920409;29;20496;-80
2022/05/05 05:51:40;;;;;;;13.70;12.50;;;12.90;99.90;;;;;;4919584;29;20466;-79
2022/05/05 05:54:08;;;;;;;12.03;10.90;;;13.10;99.90;;;;;;4919853;29;20470;-80
2022/05/05 05:56:35;;;;;;;11.50;10.60;;;13.20;99.90;;;;;;4919517;29;20964;-80
2022/05/05 05:59:02;;;;;;;12.77;11.77;;;13.40;99.90;;;;;;4919938;29;20518;-80
2022/05/05 06:04:13;;;;;;;11.70;10.70;;;13.50;99.90;;;;;;4919646;29;20461;-80
2022/05/05 06:06:41;;;;;;;11.43;10.37;;;13.40;99.90;;;;;;4920088;29;20852;-80
2022/05/05 06:09:09;;;;;;;12.20;10.90;;;13.50;99.90;;;;;;4919436;29;20487;-80
2022/05/05 06:11:36;;;;;;;13.00;12.00;;;13.70;99.90;;;;;;4920085;29;20466;-80
2022/05/05 06:14:04;;;;;;;12.27;11.10;;;13.80;99.90;;;;;;4920937;29;20465;-80
2022/05/05 06:16:31;;;;;;;10.20;9.30;;;13.90;99.90;;;;;;4920545;29;20999;-80
2022/05/05 06:18:57;;;;;;;10.80;10.00;;;13.90;99.90;;;;;;4924057;29;20485;-81
2022/05/05 06:21:24;;;;;;;10.50;9.60;;;13.90;99.90;;;;;;4921485;29;20469;-80
2022/05/05 06:23:51;;;;;;;11.00;9.90;;;13.80;99.90;;;;;;4921181;29;20520;-81
2022/05/05 06:26:19;;;;;;;10.23;9.13;;;13.70;99.90;;;;;;4921766;29;20469;-82
2022/05/05 06:28:46;;;;;;;10.17;9.27;;;13.80;99.90;;;;;;4922004;29;20490;-81
2022/05/05 06:31:13;;;;;;;9.80;9.00;;;13.90;99.90;;;;;;4921964;29;20476;-82
2022/05/05 06:33:40;;;;;;;11.43;10.40;;;14.10;99.90;;;;;;4921412;29;20454;-81
2022/05/05 06:36:07;;;;;;;8.77;7.97;;;14.00;99.90;;;;;;4921442;29;20466;-81
2022/05/05 06:38:33;;;;;;;10.70;9.73;;;14.10;99.90;;;;;;4921311;29;20474;-82
2022/05/05 06:41:00;;;;;;;10.00;9.10;;;14.20;99.90;;;;;;4921715;29;20457;-82
2022/05/05 06:43:29;;;;;;;10.70;9.80;;;14.30;99.90;;;;;;4920507;29;20503;-82
2022/05/05 06:45:57;;;;;;;10.93;9.80;;;14.10;99.90;;;;;;4921526;29;20462;-81
2022/05/05 06:48:24;;;;;;;9.80;8.90;;;14.10;99.90;;;;;;4920559;29;20490;-81
2022/05/05 06:50:50;;;;;;;10.97;10.00;;;14.00;99.90;;;;;;4921864;29;20490;-80
2022/05/05 06:53:17;;;;;;;10.70;9.83;;;13.90;99.90;;;;;;4923229;29;20482;-81
2022/05/05 06:55:44;;;;;;;10.43;9.53;;;13.90;99.90;;;;;;4923202;29;20463;-81
2022/05/05 06:58:11;;;;;;;10.03;9.23;;;14.00;99.90;;;;;;4923135;29;20470;-81
2022/05/05 07:03:23;;;;;;;10.37;9.43;;;14.10;99.90;;;;;;4923555;29;20457;-81
2022/05/05 07:05:49;;;;;;;9.93;8.93;;;14.00;99.90;;;;;;4924316;29;20473;-81
2022/05/05 07:08:16;;;;;;;11.43;10.20;;;13.90;99.90;;;;;;4922626;29;20494;-81
2022/05/05 07:10:53;;;;;;;12.50;11.37;;;14.10;99.90;;;;;;4922177;29;20541;-81
2022/05/05 07:13:21;;;;;;;10.80;9.97;;;14.50;99.90;;;;;;4925094;29;20514;-84
2022/05/05 07:15:49;;;;;;;11.13;10.03;;;14.70;99.90;;;;;;4926214;29;20458;-84
2022/05/05 07:18:16;;;;;;;11.40;10.20;;;14.90;99.90;;;;;;4927343;29;20471;-84
2022/05/05 07:20:44;;;;;;;11.23;10.13;;;15.10;99.90;;;;;;4927661;29;20446;-84
2022/05/05 07:23:14;;;;;;;11.77;10.67;;;15.10;99.90;;;;;;4925948;29;20455;-84
2022/05/05 07:25:41;;;;;;;11.93;10.73;;;15.00;99.90;;;;;;4926797;29;20951;-84
2022/05/05 07:28:08;;;;;;;10.97;9.97;;;15.00;99.90;;;;;;4925993;29;20498;-84
2022/05/05 07:30:37;;;;;;;11.20;10.20;;;15.00;99.90;;;;;;4926989;29;20477;-84
2022/05/05 07:33:06;;;;;;;13.03;11.73;;;15.00;99.90;;;;;;4925028;29;20941;-84
2022/05/05 07:35:38;;;;;;;11.77;10.70;;;14.90;99.90;;;;;;4926889;29;20470;-84
2022/05/05 07:38:04;;;;;;;12.43;11.23;;;15.10;99.90;;;;;;4926571;29;20482;-84
2022/05/05 07:40:31;;;;;;;12.17;11.07;;;15.10;99.90;;;;;;4926563;29;20463;-84
2022/05/05 07:42:58;;;;;;;11.57;10.37;;;15.10;99.90;;;;;;4926396;29;20466;-81
2022/05/05 07:45:24;;;;;;;10.77;9.67;;;15.20;99.90;;;;;;4926661;29;20457;-81
2022/05/05 07:47:51;;;;;;;13.50;10.17;;;15.40;99.90;;;;;;4943481;23;20516;-83
2022/05/05 07:50:19;;;;;;;11.80;10.73;;;15.40;99.90;;;;;;4902618;29;20442;-83
2022/05/05 07:52:46;;;;;;;12.07;10.87;;;15.30;99.90;;;;;;4902477;29;20452;-83
2022/05/05 07:55:13;;;;;;;11.10;10.20;;;15.20;99.90;;;;;;4904063;29;20464;-83
2022/05/05 07:57:43;;;;;;;12.20;11.17;;;15.10;99.90;;;;;;4902773;29;20445;-83
2022/05/05 08:00:12;;;;;;;13.77;12.27;;;15.20;99.90;;;;;;4902178;29;20447;-83
2022/05/05 08:02:39;;;;;;;12.03;10.83;;;15.10;99.90;;;;;;4902365;29;20444;-83
2022/05/05 08:05:07;;;;;;;12.40;11.30;;;15.10;99.90;;;;;;4902799;29;20504;-84
2022/05/05 08:07:35;;;;;;;11.83;10.67;;;15.10;99.90;;;;;;4901392;29;20491;-83
2022/05/05 08:10:02;;;;;;;12.27;11.07;;;15.20;99.90;;;;;;4903382;29;20486;-83
2022/05/05 08:12:29;;;;;;;12.07;11.00;;;14.90;99.90;;;;;;4901598;29;20463;-83
2022/05/05 08:14:57;;;;;;;12.57;11.47;;;14.90;99.90;;;;;;4902113;29;20455;-83
2022/05/05 08:17:23;;;;;;;12.57;11.47;;;14.70;99.90;;;;;;4902785;29;20858;-84
2022/05/05 08:19:50;;;;;;;11.23;10.23;;;15.00;99.90;;;;;;4903651;29;20456;-84
2022/05/05 08:22:17;;;;;;;12.57;11.30;;;15.10;99.90;;;;;;4902103;29;20455;-83
2022/05/05 08:30:13;;;;;;;11.50;10.60;;;15.40;99.90;;;;;;4901509;29;20525;-83
2022/05/05 08:32:40;;;;;;;11.47;10.47;;;15.70;99.90;;;;;;4901956;29;20466;-83
2022/05/05 08:35:07;;;;;;;13.27;12.10;;;15.70;99.90;;;;;;4902282;29;20460;-83
2022/05/05 08:37:34;;;;;;;13.00;11.90;;;15.90;99.90;;;;;;4902012;29;20455;-83
2022/05/05 08:40:02;;;;;;;12.87;11.57;;;15.80;99.90;;;;;;4900947;29;20462;-84
2022/05/05 08:42:29;;;;;;;12.17;11.17;;;15.80;99.90;;;;;;4901854;29;20451;-84
2022/05/05 08:44:56;;;;;;;12.30;11.10;;;15.70;99.90;;;;;;4901792;29;20467;-84
2022/05/05 08:47:25;;;;;;;12.93;11.73;;;16.00;99.90;;;;;;4900751;29;20494;-84
2022/05/05 08:49:58;;;;;;;12.63;11.43;;;15.90;99.90;;;;;;4900953;29;20472;-84
2022/05/05 08:52:25;;;;;;;13.53;12.33;;;16.00;99.90;;;;;;4901386;29;20455;-84
2022/05/05 08:54:52;;;;;;;14.10;12.70;;;16.00;99.90;;;;;;4901047;29;20460;-84
2022/05/05 08:57:20;;;;;;;13.23;12.00;;;15.80;99.90;;;;;;4900955;29;20467;-83
2022/05/05 08:59:47;;;;;;;13.30;12.17;;;15.60;99.90;;;;;;4900291;29;20486;-82
2022/05/05 09:02:14;;;;;;;15.20;13.80;;;15.20;99.90;;;;;;4899473;29;20460;-82
2022/05/05 09:04:44;;;;;;;14.53;13.23;;;15.20;99.90;;;;;;4899485;29;20463;-80
2022/05/05 09:07:11;;;;;;;13.93;12.83;;;15.10;99.90;;;;;;4899040;29;20456;-80
2022/05/05 09:09:38;;;;;;;13.97;12.87;;;15.20;99.90;;;;;;4898962;29;20483;-80
2022/05/05 09:12:13;;;;;;;14.20;13.00;;;15.20;99.90;;;;;;4887749;29;20468;-81
2022/05/05 09:14:44;;;;;;;14.83;13.33;;;15.20;99.90;;;;;;4905465;29;20459;-84
2022/05/05 09:17:13;;;;;;;15.73;14.40;;;15.40;99.90;;;;;;4905450;29;20463;-83
2022/05/05 09:19:41;;;;;;;14.50;13.10;;;15.60;99.90;;;;;;4902179;29;20480;-83
2022/05/05 09:22:09;;;;;;;13.70;12.60;;;15.50;99.90;;;;;;4903665;29;20466;-84
2022/05/05 09:24:36;;;;;;;13.67;12.40;;;15.50;99.90;;;;;;4901163;29;20459;-84
2022/05/05 09:27:23;;;;;;;15.40;13.63;;;15.60;99.90;;;;;;4901819;29;20460;-85
2022/05/05 09:30:40;;;;;;;14.23;12.90;;;15.60;99.90;;;;;;4902272;29;20495;-85
2022/05/05 09:33:09;;;;;;;16.30;14.60;;;15.40;99.90;;;;;;4904412;29;20463;-85
2022/05/05 09:35:41;;;;;;;17.23;15.70;;;15.00;99.90;;;;;;4899286;29;21059;-84
2022/05/05 09:38:09;;;;;;;16.53;14.93;;;14.90;99.90;;;;;;4883498;29;20477;-84
2022/05/05 09:47:15;;;;;;;16.07;14.37;;;15.30;99.90;;;;;;4893632;29;20462;-85
2022/05/05 09:49:58;;;;;;;16.73;15.33;;;15.40;99.90;;;;;;4895044;29;20486;-84
2022/05/05 10:08:23;;;;;;;18.10;16.40;;;16.10;99.90;;;;;;4901366;23;20504;-82
2022/05/05 10:10:50;;;;;;;16.80;15.23;;;16.20;99.90;;;;;;4897081;29;20457;-82
2022/05/05 10:13:20;;;;;;;20.40;18.60;;;16.40;99.90;;;;;;4897612;29;20471;-81
2022/05/05 10:15:48;;;;;;;21.00;19.00;;;16.40;99.90;;;;;;4898206;29;20464;-82
2022/05/05 10:18:16;;;;;;;20.40;18.30;;;16.50;99.90;;;;;;4898197;29;20546;-82
2022/05/05 10:20:44;;;;;;;23.47;20.47;;;16.70;99.90;;;;;;4893766;29;20464;-84
2022/05/05 10:23:19;;;;;;;20.77;18.83;;;16.70;99.90;;;;;;4894047;29;20463;-84
2022/05/05 10:25:52;;;;;;;20.67;18.87;;;16.80;99.90;;;;;;4896195;29;20465;-82
2022/05/05 10:28:37;;;;;;;21.27;19.30;;;16.80;99.90;;;;;;4897129;29;20556;-82
2022/05/05 10:31:04;;;;;;;21.87;19.80;;;16.80;99.90;;;;;;4896947;29;20465;-82
2022/05/05 10:34:01;;;;;;;23.97;21.47;;;16.80;99.90;;;;;;4897753;29;20459;-81
2022/05/05 10:36:29;;;;;;;21.97;19.70;;;16.80;99.90;;;;;;4896925;29;20461;-82
2022/05/05 10:38:56;;;;;;;21.93;19.70;;;16.70;99.90;;;;;;4897697;29;20473;-82
2022/05/05 10:41:39;;;;;;;23.87;21.63;;;16.80;99.90;;;;;;4897927;29;20465;-82
2022/05/05 10:44:25;;;;;;;24.03;21.17;;;17.00;99.90;;;;;;4896211;29;20466;-81
2022/05/05 10:50:08;;;;;;;22.30;20.33;;;17.10;99.90;;;;;;4888564;29;20475;-84
2022/05/05 11:22:45;;;;;;;26.60;24.23;;;15.90;99.90;;;;;;4913148;29;20491;-86
2022/05/05 11:25:23;;;;;;;26.27;23.77;;;16.00;99.90;;;;;;4918019;29;20952;-83
2022/05/05 11:27:56;;;;;;;29.50;26.53;;;16.00;99.90;;;;;;4917771;29;20533;-85
2022/05/05 11:30:23;;;;;;;30.30;27.30;;;15.70;99.90;;;;;;4917815;29;20479;-82
2022/05/05 11:33:17;;;;;;;29.83;27.10;;;15.80;99.90;;;;;;4920786;29;20459;-83
2022/05/05 11:39:07;;;;;;;27.90;25.30;;;15.90;99.90;;;;;;4902591;29;20484;-83
2022/05/05 11:42:24;;;;;;;26.70;23.97;;;15.80;99.90;;;;;;4911736;29;20488;-86
2022/05/05 11:45:27;;;;;;;25.10;22.43;;;15.50;99.90;;;;;;4843778;29;20523;-83
2022/05/05 11:48:18;;;;;;;28.83;26.00;;;15.00;99.90;;;;;;4787008;29;21006;-80
2022/05/05 11:50:46;;;;;;;28.47;24.70;;;14.80;99.90;;;;;;4865903;29;20462;-82
2022/05/05 11:53:17;;;;;;;30.07;27.30;;;14.50;99.90;;;;;;4866778;29;20494;-82
2022/05/05 12:02:25;;;;;;;26.90;24.43;;;14.60;99.90;;;;;;4871302;29;20459;-83
2022/05/05 12:04:54;;;;;;;29.00;26.30;;;14.80;99.90;;;;;;4889558;29;20551;-84
2022/05/05 12:07:22;;;;;;;26.87;24.07;;;14.70;99.90;;;;;;4903875;29;20494;-83
2022/05/05 12:09:50;;;;;;;25.60;22.97;;;14.70;99.90;;;;;;4909138;29;20489;-84
2022/05/05 12:12:19;;;;;;;29.17;26.27;;;14.60;99.90;;;;;;4911077;29;20460;-83
2022/05/05 12:14:54;;;;;;;27.93;24.90;;;14.50;99.90;;;;;;4910788;29;20452;-84
2022/05/05 12:17:23;;;;;;;27.17;24.43;;;14.30;99.90;;;;;;4912188;29;20447;-84
2022/05/05 12:19:53;;;;;;;27.97;25.27;;;14.30;99.90;;;;;;4914284;29;20479;-84
2022/05/05 12:22:30;;;;;;;25.50;22.90;;;14.30;99.90;;;;;;4913753;29;20888;-82
2022/05/05 12:25:02;;;;;;;31.83;27.47;;;14.20;99.90;;;;;;4914775;29;20456;-80
2022/05/05 12:27:29;;;;;;;30.20;25.87;;;14.30;99.90;;;;;;4911911;29;20464;-80
2022/05/05 12:29:57;;;;;;;26.30;23.67;;;14.60;99.90;;;;;;4918009;29;20510;-83
2022/05/05 12:32:24;;;;;;;26.27;23.60;;;14.90;99.90;;;;;;4918978;29;20480;-83
2022/05/05 12:35:02;;;;;;;26.60;23.90;;;15.20;99.90;;;;;;4919335;29;20444;-82
2022/05/05 12:37:28;;;;;;;26.10;23.60;;;15.50;99.90;;;;;;4916747;29;20455;-83
2022/05/05 12:40:01;;;;;;;25.00;22.70;;;15.80;99.90;;;;;;4916456;29;20537;-84
2022/05/05 12:42:40;;;;;;;24.87;22.57;;;16.10;99.90;;;;;;4911057;29;20445;-85
2022/05/05 12:45:15;;;;;;;25.90;23.13;;;16.40;99.90;;;;;;4909083;29;20465;-85
2022/05/05 12:47:43;;;;;;;25.67;23.07;;;17.10;99.90;;;;;;4903721;29;20462;-84
2022/05/05 12:50:33;;;;;;;25.27;23.00;;;17.40;99.90;;;;;;4903702;29;20502;-84
2022/05/05 13:01:23;;;;;;;29.10;26.20;;;16.40;99.90;;;;;;4905870;29;20469;-84
2022/05/05 13:03:50;;;;;;;29.97;23.73;;;15.60;99.90;;;;;;4905237;29;20463;-84
2022/05/05 13:06:17;;;;;;;27.77;25.07;;;15.20;99.90;;;;;;4905646;29;20459;-86
2022/05/05 13:08:46;;;;;;;28.43;25.73;;;15.20;99.90;;;;;;4904467;29;20499;-84
2022/05/05 13:11:13;;;;;;;26.70;24.00;;;15.40;99.90;;;;;;4905626;29;20464;-85
2022/05/05 13:13:40;;;;;;;28.60;24.50;;;15.70;99.90;;;;;;4906837;29;20459;-86
2022/05/05 13:16:07;;;;;;;24.80;22.20;;;16.00;99.90;;;;;;4905810;29;20465;-83
2022/05/05 13:19:03;;;;;;;24.13;21.80;;;16.70;99.90;;;;;;4904526;29;20476;-83
2022/05/05 13:21:33;;;;;;;24.23;21.90;;;17.30;99.90;;;;;;4907046;29;20461;-84
2022/05/05 13:24:02;;;;;;;24.47;21.87;;;17.70;99.90;;;;;;4905008;29;20450;-84
2022/05/05 13:26:30;;;;;;;23.87;21.67;;;18.10;99.90;;;;;;4906434;29;20456;-85
2022/05/05 13:28:57;;;;;;;25.23;22.70;;;18.60;99.90;;;;;;4909113;29;20490;-82
2022/05/05 13:31:24;;;;;;;23.87;21.77;;;18.40;99.90;;;;;;4919336;29;20446;-84
2022/05/05 13:33:52;;;;;;;23.90;21.60;;;18.80;99.90;;;;;;4918183;29;20463;-83
2022/05/05 13:36:19;;;;;;;24.13;21.70;;;18.80;99.90;;;;;;4920083;29;20454;-82
2022/05/05 13:38:46;;;;;;;22.83;20.53;;;19.10;99.90;;;;;;4919208;29;20535;-83
2022/05/05 13:41:13;;;;;;;22.07;20.07;;;19.20;99.90;;;;;;4912575;29;20470;-84
2022/05/05 13:43:47;;;;;;;21.97;19.30;;;19.30;99.90;;;;;;4913446;29;20455;-86
2022/05/05 13:46:14;;;;;;;22.37;20.17;;;19.00;99.90;;;;;;4913298;29;20967;-84
2022/05/05 13:58:54;;;;;;;21.30;19.30;;;18.40;99.90;;;;;;4788218;30;20491;-83
2022/05/05 14:01:21;;;;;;;21.60;19.50;;;18.20;99.90;;;;;;4875046;29;20969;-85
2022/05/05 14:03:48;;;;;;;24.00;21.60;;;17.90;99.90;;;;;;4886296;29;20527;-85
2022/05/05 14:06:15;;;;;;;22.17;19.23;;;17.90;99.90;;;;;;4886282;29;20455;-85
2022/05/05 14:14:12;;;;;;;19.97;17.90;;;18.30;99.90;;;;;;4911820;29;20506;-87
2022/05/05 14:16:39;;;;;;;18.83;17.13;;;18.60;99.90;;;;;;4905969;29;21008;-88
2022/05/05 14:19:06;;;;;;;19.60;17.80;;;18.50;99.90;;;;;;4902723;29;20489;-87
2022/05/05 14:21:32;;;;;;;20.53;18.73;;;18.60;99.90;;;;;;4903529;29;20467;-86
2022/05/05 14:24:01;;;;;;;18.40;16.63;;;19.20;99.90;;;;;;4903899;29;20806;-85
2022/05/05 14:26:30;;;;;;;18.40;16.60;;;19.90;99.90;;;;;;4903083;29;20828;-89